createdAt,value
2018-07-15T00:02:07.379Z,6.30
2018-07-15T00:04:35.734Z,6.20
2018-07-15T00:07:04.146Z,5.97
2018-07-15T00:09:32.517Z,5.70
2018-07-15T00:12:00.903Z,6.10
2018-07-15T00:14:29.482Z,6.10
2018-07-15T00:16:57.833Z,5.60
2018-07-15T00:19:26.234Z,5.80
2018-07-15T00:21:54.579Z,5.83
2018-07-15T00:24:23.033Z,5.77
2018-07-15T00:26:51.626Z,5.73
2018-07-15T00:29:20.005Z,5.97
2018-07-15T00:31:48.380Z,5.63
2018-07-15T00:34:16.796Z,6.50
2018-07-15T00:36:44.901Z,6.67
2018-07-15T00:39:13.258Z,6.17
2018-07-15T00:41:41.677Z,5.57
2018-07-15T00:44:10.031Z,5.80
2018-07-15T00:46:38.404Z,5.73
2018-07-15T00:49:07.327Z,6.20
2018-07-15T00:51:35.732Z,6.00
2018-07-15T00:54:04.130Z,6.30
2018-07-15T00:56:32.538Z,6.20
2018-07-15T00:59:01.001Z,6.03
2018-07-15T01:01:29.398Z,6.10
2018-07-15T01:03:57.802Z,6.73
2018-07-15T01:06:26.209Z,6.73
2018-07-15T01:08:54.616Z,6.73
2018-07-15T01:11:22.997Z,6.40
2018-07-15T01:13:51.354Z,6.67
2018-07-15T01:16:19.758Z,6.17
2018-07-15T01:18:48.216Z,6.43
2018-07-15T01:21:16.567Z,6.00
2018-07-15T01:23:44.915Z,6.47
2018-07-15T01:26:14.274Z,6.30
2018-07-15T01:28:42.630Z,6.43
2018-07-15T01:31:11.010Z,6.57
2018-07-15T01:33:40.378Z,6.27
2018-07-15T01:36:08.795Z,6.30
2018-07-15T01:38:37.150Z,6.13
2018-07-15T01:41:05.493Z,6.50
2018-07-15T01:43:33.640Z,6.60
2018-07-15T01:46:01.999Z,6.43
2018-07-15T01:48:30.364Z,6.30
2018-07-15T01:50:58.965Z,6.37
2018-07-15T01:53:27.314Z,6.43
2018-07-15T01:55:55.665Z,6.53
2018-07-15T01:58:24.038Z,6.50
2018-07-15T02:00:52.569Z,6.90
2018-07-15T02:03:20.909Z,6.20
2018-07-15T02:05:49.290Z,6.50
2018-07-15T02:08:17.707Z,6.07
2018-07-15T02:10:46.051Z,6.50
2018-07-15T02:13:14.423Z,6.47
2018-07-15T02:15:42.954Z,6.43
2018-07-15T02:18:11.528Z,6.67
2018-07-15T02:20:40.154Z,6.50
2018-07-15T02:23:08.535Z,7.00
2018-07-15T02:25:36.914Z,6.60
2018-07-15T02:28:05.342Z,6.33
2018-07-15T02:30:33.801Z,6.23
2018-07-15T02:33:02.215Z,6.10
2018-07-15T02:35:30.584Z,6.00
2018-07-15T02:37:58.938Z,6.13
2018-07-15T02:40:27.346Z,6.67
2018-07-15T02:42:55.742Z,5.93
2018-07-15T02:45:24.092Z,5.90
2018-07-15T02:47:52.497Z,6.00
2018-07-15T02:50:20.853Z,6.33
2018-07-15T02:52:49.222Z,6.50
2018-07-15T02:55:17.629Z,6.20
2018-07-15T02:57:46.008Z,6.10
2018-07-15T03:00:14.394Z,5.93
2018-07-15T03:02:42.817Z,5.80
2018-07-15T03:05:11.462Z,6.53
2018-07-15T03:07:39.839Z,6.27
2018-07-15T03:10:08.202Z,5.87
2018-07-15T03:12:38.334Z,6.10
2018-07-15T03:15:06.740Z,6.17
2018-07-15T03:17:35.106Z,6.70
2018-07-15T03:20:03.612Z,6.40
2018-07-15T03:22:31.955Z,6.80
2018-07-15T03:25:00.335Z,6.30
2018-07-15T03:27:28.733Z,6.33
2018-07-15T03:29:57.910Z,6.00
2018-07-15T03:32:26.262Z,6.40
2018-07-15T03:34:54.687Z,5.93
2018-07-15T03:37:23.075Z,6.53
2018-07-15T03:39:51.475Z,6.30
2018-07-15T03:42:19.910Z,6.10
2018-07-15T03:44:48.266Z,6.17
2018-07-15T03:47:16.662Z,6.50
2018-07-15T03:49:45.087Z,6.33
2018-07-15T03:52:13.440Z,6.63
2018-07-15T03:54:41.826Z,6.60
2018-07-15T03:57:10.207Z,6.60
2018-07-15T03:59:38.582Z,6.70
2018-07-15T04:02:06.951Z,6.50
2018-07-15T04:04:35.317Z,6.73
2018-07-15T04:07:03.685Z,6.77
2018-07-15T04:09:32.074Z,6.60
2018-07-15T04:12:00.439Z,6.37
2018-07-15T04:14:28.786Z,6.67
2018-07-15T04:16:57.144Z,6.47
2018-07-15T04:19:25.625Z,6.43
2018-07-15T04:21:53.978Z,6.83
2018-07-15T04:24:22.321Z,6.67
2018-07-15T04:26:50.706Z,6.97
2018-07-15T04:29:19.065Z,6.47
2018-07-15T04:31:47.465Z,7.03
2018-07-15T04:34:15.870Z,6.23
2018-07-15T04:36:44.356Z,6.70
2018-07-15T04:39:12.834Z,6.70
2018-07-15T04:41:41.290Z,6.87
2018-07-15T04:44:09.686Z,6.23
2018-07-15T04:46:38.107Z,6.40
2018-07-15T04:49:06.550Z,6.37
2018-07-15T04:51:35.086Z,6.80
2018-07-15T04:54:03.486Z,7.13
2018-07-15T04:56:31.845Z,7.07
2018-07-15T04:59:00.304Z,7.50
2018-07-15T05:01:28.678Z,7.37
2018-07-15T05:03:57.073Z,6.17
2018-07-15T05:06:25.414Z,6.60
2018-07-15T05:08:53.761Z,5.70
2018-07-15T05:11:22.285Z,6.47
2018-07-15T05:13:50.685Z,5.87
2018-07-15T05:16:19.052Z,5.83
2018-07-15T05:18:47.519Z,6.13
2018-07-15T05:21:15.863Z,6.97
2018-07-15T05:23:44.262Z,7.33
2018-07-15T05:26:12.654Z,7.20
2018-07-15T05:28:41.014Z,7.80
2018-07-15T05:31:09.443Z,6.80
2018-07-15T05:33:37.848Z,6.30
2018-07-15T05:36:06.502Z,6.47
2018-07-15T05:38:34.976Z,6.37
2018-07-15T05:41:03.394Z,7.00
2018-07-15T05:43:31.746Z,6.80
2018-07-15T05:46:00.162Z,6.50
2018-07-15T05:48:28.503Z,6.57
2018-07-15T05:50:56.853Z,6.57
2018-07-15T05:53:25.237Z,6.83
2018-07-15T05:55:53.590Z,6.90
2018-07-15T05:58:21.940Z,6.73
2018-07-15T06:00:50.368Z,6.90
2018-07-15T06:03:18.807Z,6.83
2018-07-15T06:05:47.125Z,7.17
2018-07-15T06:08:16.183Z,6.03
2018-07-15T06:10:44.612Z,5.87
2018-07-15T06:13:12.922Z,5.90
2018-07-15T06:15:41.293Z,6.87
2018-07-15T06:18:09.678Z,6.27
2018-07-15T06:20:38.032Z,6.50
2018-07-15T06:23:06.455Z,6.70
2018-07-15T06:25:34.914Z,6.17
2018-07-15T06:28:03.266Z,6.40
2018-07-15T06:30:31.734Z,5.97
2018-07-15T06:33:00.099Z,6.20
2018-07-15T06:35:28.486Z,5.40
2018-07-15T06:37:56.935Z,6.40
2018-07-15T06:40:25.369Z,6.47
2018-07-15T06:42:53.722Z,6.30
2018-07-15T06:45:22.074Z,6.47
2018-07-15T06:47:50.254Z,6.43
2018-07-15T06:50:18.867Z,6.10
2018-07-15T06:52:48.076Z,5.97
2018-07-15T06:55:16.494Z,5.73
2018-07-15T06:57:44.938Z,5.10
2018-07-15T07:00:13.286Z,5.43
2018-07-15T07:02:41.695Z,5.23
2018-07-15T07:05:10.093Z,5.00
2018-07-15T07:07:38.586Z,5.10
2018-07-15T07:10:06.895Z,5.53
2018-07-15T07:12:35.285Z,5.10
2018-07-15T07:15:03.798Z,5.27
2018-07-15T07:17:32.148Z,5.13
2018-07-15T07:20:00.521Z,5.23
2018-07-15T07:22:29.035Z,4.80
2018-07-15T07:24:57.385Z,5.27
2018-07-15T07:27:25.762Z,5.00
2018-07-15T07:29:54.112Z,5.33
2018-07-15T07:32:22.474Z,5.50
2018-07-15T07:34:50.926Z,4.83
2018-07-15T07:37:19.276Z,4.57
2018-07-15T07:39:47.625Z,4.83
2018-07-15T07:42:15.740Z,4.30
2018-07-15T07:44:44.075Z,5.10
2018-07-15T07:47:12.456Z,4.50
2018-07-15T07:49:40.812Z,4.73
2018-07-15T07:52:09.571Z,4.58
2018-07-15T07:54:38.078Z,4.57
2018-07-15T07:57:06.830Z,4.63
2018-07-15T07:59:35.345Z,4.37
2018-07-15T08:02:03.833Z,4.47
2018-07-15T08:04:32.165Z,4.47
2018-07-15T08:07:00.556Z,5.23
2018-07-15T08:09:29.037Z,4.80
2018-07-15T08:11:57.558Z,4.60
2018-07-15T08:14:26.102Z,4.03
2018-07-15T08:16:54.450Z,4.17
2018-07-15T08:19:22.829Z,4.07
2018-07-15T08:21:51.568Z,3.87
2018-07-15T08:24:19.988Z,4.00
2018-07-15T08:26:48.400Z,3.57
2018-07-15T08:29:16.818Z,3.70
2018-07-15T08:31:45.162Z,3.90
2018-07-15T08:34:13.608Z,3.80
2018-07-15T08:36:41.974Z,3.90
2018-07-15T08:39:10.321Z,3.90
2018-07-15T08:41:38.798Z,4.23
2018-07-15T08:44:07.161Z,3.80
2018-07-15T08:46:35.513Z,3.80
2018-07-15T08:49:03.712Z,3.93
2018-07-15T08:51:32.067Z,3.80
2018-07-15T08:54:00.453Z,4.00
2018-07-15T08:56:28.853Z,4.23
2018-07-15T08:58:57.247Z,4.00
2018-07-15T09:01:25.656Z,4.60
2018-07-15T09:03:54.037Z,3.93
2018-07-15T09:06:22.602Z,4.00
2018-07-15T09:08:50.941Z,4.07
2018-07-15T09:11:19.318Z,4.33
2018-07-15T09:13:47.730Z,4.00
2018-07-15T09:16:16.223Z,4.43
2018-07-15T09:18:44.581Z,4.20
2018-07-15T09:21:12.959Z,4.03
2018-07-15T09:23:41.314Z,3.60
2018-07-15T09:26:09.687Z,4.25
2018-07-15T09:28:37.833Z,4.20
2018-07-15T09:31:06.630Z,4.35
2018-07-15T09:33:35.074Z,4.10
2018-07-15T09:36:03.430Z,4.03
2018-07-15T09:38:31.811Z,3.90
2018-07-15T09:41:00.154Z,4.33
2018-07-15T09:43:28.522Z,3.90
2018-07-15T09:45:56.952Z,4.03
2018-07-15T09:48:25.294Z,4.10
2018-07-15T09:50:53.694Z,3.90
2018-07-15T09:53:22.214Z,4.15
2018-07-15T09:55:50.560Z,4.47
2018-07-15T09:58:19.021Z,4.97
2018-07-15T10:00:52.759Z,4.20
2018-07-15T10:03:21.170Z,4.30
2018-07-15T10:05:49.534Z,4.60
2018-07-15T10:08:18.678Z,3.95
2018-07-15T10:10:47.054Z,4.60
2018-07-15T10:13:15.528Z,4.20
2018-07-15T10:15:43.867Z,4.28
2018-07-15T10:18:12.286Z,4.35
2018-07-15T10:20:40.690Z,4.20
2018-07-15T10:23:09.067Z,4.60
2018-07-15T10:25:37.462Z,4.53
2018-07-15T10:28:06.046Z,4.97
2018-07-15T10:30:34.426Z,4.70
2018-07-15T10:33:02.921Z,4.92
2018-07-15T10:35:31.239Z,4.80
2018-07-15T10:37:59.587Z,4.67
2018-07-15T10:40:27.955Z,4.57
2018-07-15T10:42:56.322Z,4.87
2018-07-15T10:45:24.757Z,5.08
2018-07-15T10:47:53.255Z,4.83
2018-07-15T10:50:21.625Z,4.42
2018-07-15T10:52:50.068Z,5.10
2018-07-15T10:55:18.537Z,4.87
2018-07-15T10:57:48.346Z,5.30
2018-07-15T11:00:16.766Z,4.78
2018-07-15T11:02:45.310Z,4.67
2018-07-15T11:05:13.665Z,4.62
2018-07-15T11:07:42.089Z,4.80
2018-07-15T11:10:10.467Z,4.92
2018-07-15T11:12:38.831Z,4.95
2018-07-15T11:15:07.219Z,4.92
2018-07-15T11:17:35.603Z,4.85
2018-07-15T11:20:03.993Z,5.05
2018-07-15T11:22:32.603Z,5.20
2018-07-15T11:25:00.940Z,5.45
2018-07-15T11:27:29.359Z,5.20
2018-07-15T11:29:57.762Z,5.30
2018-07-15T11:32:26.101Z,4.60
2018-07-15T11:34:54.478Z,5.03
2018-07-15T11:37:22.849Z,5.47
2018-07-15T11:39:51.222Z,4.77
2018-07-15T11:42:19.589Z,5.05
2018-07-15T11:44:48.002Z,5.10
2018-07-15T11:47:16.350Z,5.42
2018-07-15T11:49:44.690Z,5.08
2018-07-15T11:52:13.242Z,4.58
2018-07-15T11:54:41.630Z,5.00
2018-07-15T11:57:09.989Z,4.50
2018-07-15T11:59:38.408Z,4.58
2018-07-15T12:02:06.530Z,4.35
2018-07-15T12:04:35.116Z,4.53
2018-07-15T12:07:03.553Z,4.12
2018-07-15T12:09:33.218Z,6.97
2018-07-15T12:12:02.087Z,7.17
2018-07-15T12:14:30.617Z,4.40
2018-07-15T12:16:58.989Z,4.05
2018-07-15T12:19:27.489Z,4.22
2018-07-15T12:21:55.914Z,4.55
2018-07-15T12:24:24.346Z,4.30
2018-07-15T12:26:52.686Z,4.40
2018-07-15T12:29:21.175Z,4.25
2018-07-15T12:31:49.553Z,3.95
2018-07-15T12:34:17.970Z,4.17
2018-07-15T12:36:46.382Z,3.90
2018-07-15T12:39:14.894Z,13.38
2018-07-15T12:41:43.265Z,3.80
2018-07-15T12:44:12.800Z,3.67
2018-07-15T12:46:42.033Z,3.90
2018-07-15T12:49:11.314Z,5.70
2018-07-15T12:51:40.707Z,3.75
2018-07-15T12:54:09.998Z,3.87
2018-07-15T12:56:39.121Z,3.62
2018-07-15T12:59:08.771Z,3.90
2018-07-15T13:01:39.115Z,3.45
2018-07-15T13:04:08.500Z,3.92
2018-07-15T13:06:38.012Z,3.87
2018-07-15T13:09:07.496Z,3.33
2018-07-15T13:11:36.949Z,4.80
2018-07-15T13:14:06.387Z,6.15
2018-07-15T13:16:35.796Z,4.10
2018-07-15T13:19:05.195Z,3.85
2018-07-15T13:21:35.475Z,3.83
2018-07-15T13:24:04.706Z,3.85
2018-07-15T13:26:33.859Z,3.70
2018-07-15T13:29:03.188Z,3.87
2018-07-15T13:31:32.348Z,4.00
2018-07-15T13:34:01.730Z,4.20
2018-07-15T13:36:31.064Z,5.30
2018-07-15T13:38:59.447Z,4.05
2018-07-15T13:41:27.803Z,4.30
2018-07-15T13:43:56.235Z,4.08
2018-07-15T13:46:24.574Z,5.62
2018-07-15T13:48:53.070Z,4.05
2018-07-15T13:51:21.488Z,4.78
2018-07-15T13:53:49.882Z,4.47
2018-07-15T13:56:18.318Z,4.20
2018-07-15T13:58:46.809Z,4.33
2018-07-15T14:01:15.889Z,3.80
2018-07-15T14:03:44.334Z,4.30
2018-07-15T14:06:12.721Z,4.25
2018-07-15T14:08:41.161Z,4.20
2018-07-15T14:11:09.559Z,4.10
2018-07-15T14:13:37.950Z,4.20
2018-07-15T14:16:06.311Z,4.00
2018-07-15T14:18:34.650Z,4.42
2018-07-15T14:21:03.449Z,4.70
2018-07-15T14:23:31.837Z,4.30
2018-07-15T14:26:00.281Z,4.20
2018-07-15T14:28:28.646Z,4.35
2018-07-15T14:30:56.997Z,4.12
2018-07-15T14:33:25.391Z,4.55
2018-07-15T14:35:53.779Z,4.62
2018-07-15T14:38:22.142Z,4.62
2018-07-15T14:40:50.565Z,4.40
2018-07-15T14:43:18.978Z,3.95
2018-07-15T14:45:47.445Z,4.85
2018-07-15T14:48:15.809Z,4.55
2018-07-15T14:50:44.483Z,4.20
2018-07-15T14:53:12.873Z,4.62
2018-07-15T14:55:41.317Z,4.33
2018-07-15T14:58:11.042Z,4.35
2018-07-15T15:00:39.422Z,4.90
2018-07-15T15:03:15.181Z,4.60
2018-07-15T15:05:43.730Z,4.40
2018-07-15T15:08:12.122Z,4.35
2018-07-15T15:10:40.549Z,4.42
2018-07-15T15:13:09.024Z,4.08
2018-07-15T15:15:37.400Z,4.03
2018-07-15T15:18:05.814Z,4.37
2018-07-15T15:20:34.280Z,4.22
2018-07-15T15:23:02.673Z,4.33
2018-07-15T15:25:31.084Z,4.22
2018-07-15T15:27:59.459Z,4.45
2018-07-15T15:30:27.835Z,4.37
2018-07-15T15:32:56.215Z,4.10
2018-07-15T15:35:24.578Z,4.42
2018-07-15T15:37:53.090Z,4.10
2018-07-15T15:40:21.521Z,4.37
2018-07-15T15:42:49.899Z,3.98
2018-07-15T15:45:18.266Z,4.33
2018-07-15T15:47:46.656Z,4.33
2018-07-15T15:50:15.026Z,3.98
2018-07-15T15:52:43.379Z,4.70
2018-07-15T15:55:11.821Z,4.80
2018-07-15T15:57:40.212Z,4.50
2018-07-15T16:00:09.816Z,3.92
2018-07-15T16:02:38.333Z,4.30
2018-07-15T16:05:07.132Z,4.80
2018-07-15T16:07:35.559Z,3.90
2018-07-15T16:10:03.987Z,4.08
2018-07-15T16:12:32.369Z,4.05
2018-07-15T16:15:00.785Z,4.07
2018-07-15T16:17:29.152Z,4.25
2018-07-15T16:19:57.680Z,3.83
2018-07-15T16:22:26.890Z,4.25
2018-07-15T16:24:55.252Z,3.80
2018-07-15T16:27:23.605Z,4.33
2018-07-15T16:29:52.025Z,4.13
2018-07-15T16:32:20.377Z,4.15
2018-07-15T16:34:49.123Z,3.80
2018-07-15T16:37:17.539Z,4.20
2018-07-15T16:39:45.935Z,3.90
2018-07-15T16:42:14.314Z,4.08
2018-07-15T16:44:43.562Z,3.82
2018-07-15T16:47:11.905Z,3.65
2018-07-15T16:49:40.308Z,3.37
2018-07-15T16:52:08.716Z,3.98
2018-07-15T16:54:37.110Z,3.90
2018-07-15T16:57:05.673Z,3.90
2018-07-15T16:59:34.326Z,3.72
2018-07-15T17:02:02.693Z,4.00
2018-07-15T17:04:31.213Z,3.80
2018-07-15T17:06:59.650Z,3.50
2018-07-15T17:09:27.982Z,3.72
2018-07-15T17:11:56.402Z,4.00
2018-07-15T17:14:25.778Z,3.87
2018-07-15T17:16:54.140Z,3.70
2018-07-15T17:19:22.566Z,3.40
2018-07-15T17:21:51.093Z,3.58
2018-07-15T17:24:19.514Z,3.30
2018-07-15T17:26:47.899Z,3.20
2018-07-15T17:29:16.277Z,3.52
2018-07-15T17:31:44.866Z,3.27
2018-07-15T17:34:13.226Z,3.30
2018-07-15T17:36:41.608Z,3.42
2018-07-15T17:39:10.049Z,3.00
2018-07-15T17:41:38.423Z,3.40
2018-07-15T17:44:06.879Z,3.22
2018-07-15T17:46:35.282Z,3.45
2018-07-15T17:49:03.764Z,3.80
2018-07-15T17:51:32.146Z,3.10
2018-07-15T17:54:00.542Z,3.17
2018-07-15T17:56:28.934Z,3.20
2018-07-15T17:58:57.314Z,3.35
2018-07-15T18:01:25.711Z,3.12
2018-07-15T18:03:54.126Z,3.42
2018-07-15T18:06:22.546Z,3.30
2018-07-15T18:08:50.963Z,3.20
2018-07-15T18:11:19.328Z,2.90
2018-07-15T18:13:47.745Z,2.95
2018-07-15T18:16:16.253Z,2.70
2018-07-15T18:18:44.546Z,2.83
2018-07-15T18:21:12.918Z,4.50
2018-07-15T18:23:41.374Z,4.25
2018-07-15T18:26:09.746Z,2.98
2018-07-15T18:28:38.188Z,3.10
2018-07-15T18:31:06.774Z,2.70
2018-07-15T18:33:35.166Z,2.60
2018-07-15T18:36:04.197Z,2.50
2018-07-15T18:38:36.349Z,2.67
2018-07-15T18:41:05.532Z,2.70
2018-07-15T18:43:34.141Z,2.50
2018-07-15T18:46:03.044Z,2.80
2018-07-15T18:48:31.534Z,2.72
2018-07-15T18:51:00.066Z,2.80
2018-07-15T18:53:28.607Z,3.40
2018-07-15T18:55:56.966Z,2.62
2018-07-15T18:58:25.387Z,2.70
2018-07-15T19:00:53.798Z,3.25
2018-07-15T19:03:22.242Z,2.55
2018-07-15T19:05:50.749Z,2.62
2018-07-15T19:08:19.349Z,2.70
2018-07-15T19:10:47.873Z,2.80
2018-07-15T19:13:16.273Z,2.83
2018-07-15T19:15:44.734Z,2.60
2018-07-15T19:18:13.213Z,3.00
2018-07-15T19:20:41.658Z,3.12
2018-07-15T19:23:10.162Z,2.50
2018-07-15T19:25:38.543Z,3.00
2018-07-15T19:28:07.065Z,2.60
2018-07-15T19:30:35.472Z,2.30
2018-07-15T19:33:03.877Z,2.50
2018-07-15T19:35:32.334Z,2.58
2018-07-15T19:38:00.746Z,3.20
2018-07-15T19:40:29.150Z,2.62
2018-07-15T19:42:57.618Z,2.62
2018-07-15T19:45:25.999Z,2.85
2018-07-15T19:47:54.422Z,2.83
2018-07-15T19:50:22.843Z,2.90
2018-07-15T19:52:51.754Z,2.35
2018-07-15T19:55:20.117Z,3.00
2018-07-15T19:57:48.505Z,2.92
2018-07-15T20:00:17.044Z,2.37
2018-07-15T20:02:45.644Z,2.50
2018-07-15T20:05:14.321Z,2.75
2018-07-15T20:07:43.031Z,2.72
2018-07-15T20:10:11.601Z,2.73
2018-07-15T20:12:40.082Z,2.60
2018-07-15T20:15:15.134Z,2.60
2018-07-15T20:17:44.133Z,2.62
2018-07-15T20:20:13.066Z,2.67
2018-07-15T20:22:41.421Z,2.77
2018-07-15T20:25:09.806Z,3.02
2018-07-15T20:27:38.220Z,2.40
2018-07-15T20:30:06.579Z,2.90
2018-07-15T20:32:34.977Z,2.67
2018-07-15T20:35:03.962Z,3.00
2018-07-15T20:37:32.104Z,2.53
2018-07-15T20:40:00.505Z,2.40
2018-07-15T20:42:28.879Z,2.23
2018-07-15T20:44:57.232Z,3.47
2018-07-15T20:47:25.646Z,2.70
2018-07-15T20:49:54.030Z,2.33
2018-07-15T20:52:22.459Z,2.53
2018-07-15T20:54:51.062Z,2.25
2018-07-15T20:57:19.438Z,2.22
2018-07-15T20:59:47.874Z,2.40
2018-07-15T21:02:16.476Z,2.60
2018-07-15T21:04:44.872Z,2.73
2018-07-15T21:07:13.254Z,2.40
2018-07-15T21:09:41.701Z,2.45
2018-07-15T21:12:09.741Z,2.33
2018-07-15T21:14:38.283Z,2.47
2018-07-15T21:17:06.704Z,2.17
2018-07-15T21:19:35.063Z,2.27
2018-07-15T21:22:03.418Z,2.03
2018-07-15T21:24:31.819Z,2.20
2018-07-15T21:27:00.317Z,2.03
2018-07-15T21:29:28.734Z,2.10
2018-07-15T21:31:59.994Z,2.23
2018-07-15T21:34:28.921Z,2.30
2018-07-15T21:36:58.124Z,2.17
2018-07-15T21:39:26.477Z,2.30
2018-07-15T21:41:55.158Z,2.10
2018-07-15T21:44:23.642Z,2.20
2018-07-15T21:46:52.238Z,2.40
2018-07-15T21:49:20.679Z,2.57
2018-07-15T21:51:49.054Z,2.37
2018-07-15T21:54:17.482Z,2.90
2018-07-15T21:56:46.086Z,2.70
2018-07-15T21:59:14.445Z,1.97
2018-07-15T22:01:44.062Z,2.20
2018-07-15T22:04:12.861Z,2.10
2018-07-15T22:06:52.769Z,2.30
2018-07-15T22:09:32.666Z,2.40
2018-07-15T22:12:01.042Z,2.00
2018-07-15T22:14:29.413Z,1.97
2018-07-15T22:16:57.882Z,2.07
2018-07-15T22:19:26.722Z,2.00
2018-07-15T22:21:55.092Z,1.90
2018-07-15T22:24:23.523Z,2.00
2018-07-15T22:26:51.968Z,2.10
2018-07-15T22:29:20.336Z,2.07
2018-07-15T22:31:49.070Z,2.10
2018-07-15T22:34:17.538Z,2.20
2018-07-15T22:36:45.966Z,1.90
2018-07-15T22:39:14.397Z,2.10
2018-07-15T22:41:42.784Z,2.20
2018-07-15T22:44:11.290Z,2.00
2018-07-15T22:46:39.687Z,2.20
2018-07-15T22:49:08.049Z,2.10
2018-07-15T22:51:36.471Z,2.23
2018-07-15T22:54:04.978Z,2.33
2018-07-15T22:56:33.454Z,2.20
2018-07-15T22:59:01.879Z,2.50
2018-07-15T23:01:30.307Z,2.13
2018-07-15T23:03:58.702Z,2.30
2018-07-15T23:06:27.123Z,2.30
2018-07-15T23:08:55.513Z,2.10
2018-07-15T23:11:23.862Z,2.27
2018-07-15T23:13:52.270Z,2.20
2018-07-15T23:16:20.674Z,2.30
2018-07-15T23:18:49.074Z,2.40
2018-07-15T23:21:17.614Z,2.40
2018-07-15T23:23:46.107Z,2.60
2018-07-15T23:26:14.751Z,2.43
2018-07-15T23:28:43.102Z,2.40
2018-07-15T23:31:11.502Z,2.33
2018-07-15T23:33:39.903Z,2.50
2018-07-15T23:36:08.330Z,2.23
2018-07-15T23:38:36.736Z,2.30
2018-07-15T23:41:05.246Z,2.40
2018-07-15T23:43:33.641Z,2.50
2018-07-15T23:46:02.065Z,2.60
2018-07-15T23:48:30.581Z,2.33
2018-07-15T23:50:58.950Z,2.50
2018-07-15T23:53:27.288Z,2.50
2018-07-15T23:55:55.469Z,2.60
2018-07-15T23:58:23.897Z,2.67
